Time;durP1;ratioP1;P1;durP2;ratioP2;P2;SDS_P1;SDS_P2;PMS_P1;PMS_P2;Temp;Humidity;BMP_temperature;BMP_pressure;BME280_temperature;BME280_humidity;BME280_pressure;Samples;Min_cycle;Max_cycle;Signal;HPM_P1;HPM_P2
2023/09/16 00:00:54;;;;;;;5.30;2.20;;;;;;;18.48;73.11;101826.90;107554;1254;108336;-64
2023/09/16 00:03:35;;;;;;;3.40;2.00;;;;;;;18.48;73.64;101828.09;107526;1254;96484;-64
2023/09/16 00:06:04;;;;;;;9.60;2.40;;;;;;;18.48;73.40;101828.75;107569;1254;96386;-64
2023/09/16 00:08:33;;;;;;;3.50;2.10;;;;;;;18.50;73.66;101826.48;107567;1254;111012;-65
2023/09/16 00:11:01;;;;;;;9.50;2.10;;;;;;;18.52;73.79;101822.66;107523;1254;109968;-64
2023/09/16 00:13:30;;;;;;;3.60;2.40;;;;;;;18.53;73.69;101825.39;107512;1257;108255;-64
2023/09/16 00:15:58;;;;;;;6.00;2.30;;;;;;;18.57;73.86;101824.46;107536;1254;96488;-63
2023/09/16 00:18:26;;;;;;;4.80;2.70;;;;;;;18.57;73.80;101823.70;107483;1254;97099;-64
2023/09/16 00:20:54;;;;;;;3.80;2.30;;;;;;;18.58;73.96;101824.19;107464;1254;110859;-65
2023/09/16 00:23:23;;;;;;;3.30;2.60;;;;;;;18.54;74.12;101828.06;107474;1254;109728;-64
2023/09/16 00:25:52;;;;;;;4.80;2.70;;;;;;;18.50;74.01;101826.62;107548;1255;108257;-63
2023/09/16 00:28:20;;;;;;;3.70;2.60;;;;;;;18.49;74.36;101825.89;107534;1254;96591;-64
2023/09/16 00:30:48;;;;;;;3.10;2.00;;;;;;;18.45;74.41;101828.02;107524;1253;96369;-64
2023/09/16 00:33:17;;;;;;;2.30;1.90;;;;;;;18.39;74.75;101827.20;107518;1254;110307;-64
2023/09/16 00:35:45;;;;;;;6.80;3.00;;;;;;;18.33;74.91;101826.59;107519;1255;108746;-63
2023/09/16 00:38:15;;;;;;;6.80;3.50;;;;;;;18.31;75.19;101824.09;107443;1254;107804;-64
2023/09/16 00:40:44;;;;;;;4.10;2.60;;;;;;;18.33;75.09;101826.26;107446;1257;96514;-63
2023/09/16 00:43:12;;;;;;;4.90;2.50;;;;;;;18.36;74.89;101825.73;107458;1254;96485;-64
2023/09/16 00:45:41;;;;;;;4.40;2.80;;;;;;;18.39;74.92;101827.03;107548;1254;110479;-63
2023/09/16 00:48:14;;;;;;;6.80;2.50;;;;;;;18.45;74.96;101826.65;107583;1254;109712;-64
2023/09/16 00:50:45;;;;;;;4.60;2.30;;;;;;;18.49;74.59;101828.74;107460;1254;108558;-65
2023/09/16 00:53:15;;;;;;;5.50;2.20;;;;;;;18.51;74.38;101826.75;107433;1255;96366;-63
2023/09/16 00:55:46;;;;;;;5.50;2.40;;;;;;;18.54;74.50;101829.15;107466;1254;97096;-64
2023/09/16 00:58:17;;;;;;;6.70;2.80;;;;;;;18.56;74.36;101830.48;107472;1254;109729;-66
2023/09/16 01:00:46;;;;;;;8.80;3.00;;;;;;;18.60;74.39;101826.25;107583;1254;109928;-65
2023/09/16 01:03:17;;;;;;;6.50;3.10;;;;;;;18.64;74.36;101823.88;107532;1254;108773;-63
2023/09/16 01:05:47;;;;;;;8.80;2.90;;;;;;;18.67;74.48;101825.83;107570;1254;96603;-64
2023/09/16 01:08:16;;;;;;;4.00;2.70;;;;;;;18.64;74.73;101826.06;107587;1255;96996;-63
2023/09/16 01:10:44;;;;;;;4.10;2.60;;;;;;;18.61;74.92;101824.73;107567;1254;110006;-63
2023/09/16 01:13:12;;;;;;;3.20;2.40;;;;;;;18.59;74.67;101829.13;107551;1254;108824;-62
2023/09/16 01:16:15;;;;;;;4.90;3.00;;;;;;;18.60;74.67;101831.27;107535;1257;107827;-64
2023/09/16 01:18:50;;;;;;;8.30;2.80;;;;;;;18.59;74.71;101832.24;107450;1254;96587;-64
2023/09/16 01:21:22;;;;;;;8.50;3.00;;;;;;;18.57;74.52;101834.20;107436;1254;96370;-64
2023/09/16 01:24:16;;;;;;;3.30;2.40;;;;;;;18.57;74.52;101832.33;107588;1254;109951;-64
2023/09/16 01:26:44;;;;;;;;;;;;;;;18.56;74.64;101834.41;107469;1254;109401;-64
2023/09/16 01:29:14;;;;;;;6.80;2.50;;;;;;;18.54;74.54;101834.95;107425;1254;108679;-64
2023/09/16 01:31:45;;;;;;;5.30;2.60;;;;;;;18.53;74.65;101838.51;107457;1253;96461;-64
2023/09/16 01:34:35;;;;;;;7.50;2.90;;;;;;;18.53;74.64;101835.95;107538;1254;96392;-64
2023/09/16 01:37:06;;;;;;;3.80;2.40;;;;;;;18.54;74.67;101837.88;107621;1254;110828;-65
2023/09/16 01:39:36;;;;;;;4.10;2.60;;;;;;;18.53;74.60;101842.46;107556;1254;108706;-65
2023/09/16 01:42:05;;;;;;;5.00;2.60;;;;;;;18.53;74.61;101837.77;107556;1254;108373;-64
2023/09/16 01:44:33;;;;;;;7.00;2.60;;;;;;;18.54;74.63;101838.99;107547;1254;96479;-64
2023/09/16 01:47:03;;;;;;;3.20;2.30;;;;;;;18.54;74.62;101839.53;107573;1254;97019;-64
2023/09/16 01:49:31;;;;;;;12.80;3.40;;;;;;;18.54;74.54;101838.79;107587;1254;110999;-63
2023/09/16 01:52:00;;;;;;;4.70;2.60;;;;;;;18.53;74.47;101837.05;107512;1254;109660;-63
2023/09/16 01:54:28;;;;;;;3.50;2.60;;;;;;;18.54;74.61;101839.91;107490;1254;107791;-63
2023/09/16 01:56:57;;;;;;;6.20;3.10;;;;;;;18.52;74.59;101841.15;107510;1253;96495;-64
2023/09/16 01:59:25;;;;;;;4.90;2.90;;;;;;;18.50;74.58;101841.23;107555;1254;96392;-64
2023/09/16 02:01:53;;;;;;;6.60;2.90;;;;;;;18.45;74.37;101840.91;107525;1254;109484;-64
2023/09/16 02:04:21;;;;;;;6.40;2.50;;;;;;;18.42;74.42;101846.52;107435;1253;108544;-63
2023/09/16 02:06:49;;;;;;;3.10;2.00;;;;;;;18.41;74.49;101847.04;107547;1253;107525;-64
2023/09/16 02:09:18;;;;;;;8.20;3.00;;;;;;;18.40;74.56;101846.16;107528;1253;96477;-65
2023/09/16 02:11:47;;;;;;;3.40;2.50;;;;;;;18.40;74.61;101843.83;107552;1257;96529;-63
2023/09/16 02:14:16;;;;;;;5.60;2.80;;;;;;;18.39;74.59;101845.19;107554;1254;109460;-64
2023/09/16 02:16:45;;;;;;;2.90;2.40;;;;;;;18.37;74.50;101847.95;107547;1254;110186;-64
2023/09/16 02:19:14;;;;;;;3.90;2.40;;;;;;;18.37;74.59;101850.89;107430;1254;107005;-64
2023/09/16 02:21:43;;;;;;;8.60;3.30;;;;;;;18.37;74.58;101849.64;107520;1252;96559;-63
2023/09/16 02:24:11;;;;;;;7.60;2.80;;;;;;;18.37;74.47;101851.10;107519;1253;96674;-65
2023/09/16 02:26:40;;;;;;;11.40;2.70;;;;;;;18.36;74.55;101854.84;107479;1257;109788;-64
2023/09/16 02:29:10;;;;;;;4.40;3.00;;;;;;;18.35;74.62;101852.58;107529;1254;109716;-64
2023/09/16 02:31:39;;;;;;;4.20;2.50;;;;;;;18.33;74.55;101852.05;107530;1254;108359;-65
2023/09/16 02:34:07;;;;;;;10.40;2.70;;;;;;;18.32;74.62;101851.75;107535;1254;96597;-63
2023/09/16 02:36:37;;;;;;;7.80;2.90;;;;;;;18.32;74.64;101852.88;107575;1253;96366;-64
2023/09/16 02:39:06;;;;;;;4.80;2.80;;;;;;;18.30;74.60;101855.04;107529;1254;110135;-63
2023/09/16 02:41:35;;;;;;;8.10;2.70;;;;;;;18.29;74.62;101852.62;107537;1254;109865;-63
2023/09/16 02:44:03;;;;;;;5.30;2.70;;;;;;;18.25;74.68;101857.46;107392;1254;107130;-62
2023/09/16 02:46:32;;;;;;;7.40;3.00;;;;;;;18.18;74.83;101857.23;107535;1254;96484;-63
2023/09/16 02:49:02;;;;;;;4.90;2.60;;;;;;;18.14;75.01;101858.72;107568;1254;96363;-63
2023/09/16 02:51:32;;;;;;;4.50;2.90;;;;;;;18.11;75.03;101863.15;107557;1254;110556;-64
2023/09/16 02:54:01;;;;;;;5.30;2.60;;;;;;;18.10;75.22;101866.39;107445;1253;109218;-63
2023/09/16 02:56:29;;;;;;;6.20;2.80;;;;;;;18.09;75.39;101865.02;107417;1254;107516;-64
2023/09/16 02:58:57;;;;;;;5.20;2.30;;;;;;;18.08;75.30;101869.49;107403;1257;96366;-64
2023/09/16 03:01:26;;;;;;;9.30;3.00;;;;;;;18.09;75.48;101869.20;107449;1254;98479;-63
2023/09/16 03:03:55;;;;;;;4.70;2.50;;;;;;;18.09;75.56;101866.98;107430;1257;109953;-64
2023/09/16 03:06:26;;;;;;;7.60;3.10;;;;;;;18.11;75.54;101869.20;107459;1254;109348;-64
2023/09/16 03:08:54;;;;;;;5.80;2.90;;;;;;;18.13;75.55;101871.17;107458;1252;108608;-65
2023/09/16 03:11:23;;;;;;;10.00;3.10;;;;;;;18.13;75.66;101870.99;107432;1254;96475;-65
2023/09/16 03:13:51;;;;;;;7.20;3.10;;;;;;;18.11;75.56;101872.14;107447;1254;96376;-62
2023/09/16 03:16:23;;;;;;;10.50;2.60;;;;;;;18.08;75.80;101870.76;107350;1254;109857;-64
2023/09/16 03:18:54;;;;;;;5.10;2.90;;;;;;;18.05;75.67;101873.64;107431;1254;109383;-65
2023/09/16 03:21:25;;;;;;;5.20;2.70;;;;;;;18.02;75.79;101872.08;107447;1257;107658;-64
2023/09/16 03:24:00;;;;;;;4.40;2.50;;;;;;;18.02;75.74;101870.72;107409;1254;96498;-63
2023/09/16 03:26:29;;;;;;;3.90;2.40;;;;;;;18.03;75.80;101873.81;107440;1254;96571;-64
2023/09/16 03:28:58;;;;;;;7.40;2.60;;;;;;;18.04;75.79;101873.16;107424;1254;110388;-63
2023/09/16 03:31:27;;;;;;;7.30;2.40;;;;;;;18.06;75.73;101871.39;107429;1253;109218;-64
2023/09/16 03:33:59;;;;;;;6.30;2.60;;;;;;;18.07;75.79;101874.55;107411;1254;108427;-64
2023/09/16 03:36:27;;;;;;;3.70;2.60;;;;;;;18.06;75.66;101878.82;107454;1254;96537;-63
2023/09/16 03:38:55;;;;;;;3.80;2.60;;;;;;;18.07;75.68;101881.47;107328;1253;96638;-63
2023/09/16 03:41:26;;;;;;;4.40;2.70;;;;;;;18.07;75.70;101889.06;107423;1254;109446;-63
2023/09/16 03:43:58;;;;;;;4.70;2.60;;;;;;;18.05;75.64;101886.89;107407;1254;109390;-63
2023/09/16 03:46:26;;;;;;;17.30;2.90;;;;;;;18.03;75.62;101890.54;107440;1254;107992;-63
2023/09/16 03:48:56;;;;;;;11.50;3.10;;;;;;;18.01;75.62;101894.23;107407;1254;96481;-64
2023/09/16 03:51:27;;;;;;;4.80;2.50;;;;;;;17.99;75.66;101890.77;107417;1254;97092;-64
2023/09/16 03:53:55;;;;;;;5.00;2.10;;;;;;;18.01;75.64;101898.68;107473;1254;109927;-64
2023/09/16 03:56:24;;;;;;;4.30;2.40;;;;;;;18.04;75.53;101895.02;107586;1254;109551;-64
2023/09/16 03:58:52;;;;;;;8.70;2.50;;;;;;;18.04;75.47;101897.91;107537;1254;107028;-64
2023/09/16 04:01:24;;;;;;;3.40;2.40;;;;;;;18.05;75.45;101898.70;107525;1256;96489;-62
2023/09/16 04:03:54;;;;;;;6.80;3.40;;;;;;;18.06;75.47;101901.31;107545;1252;96708;-64
2023/09/16 04:06:24;;;;;;;8.20;2.80;;;;;;;18.05;75.63;101900.89;107571;1254;110949;-63
2023/09/16 04:08:53;;;;;;;8.00;2.80;;;;;;;17.99;75.44;101899.25;107522;1254;109410;-64
2023/09/16 04:11:22;;;;;;;8.20;4.30;;;;;;;17.93;76.23;101905.16;107461;1254;107140;-63
2023/09/16 04:13:50;;;;;;;8.40;4.40;;;;;;;17.83;75.93;101909.04;107392;1253;96488;-64
2023/09/16 04:16:19;;;;;;;13.80;7.40;;;;;;;17.78;76.42;101907.88;107542;1256;97100;-64
2023/09/16 04:18:48;;;;;;;7.60;3.30;;;;;;;17.76;76.12;101909.17;107418;1254;109484;-63
2023/09/16 04:21:17;;;;;;;7.90;2.70;;;;;;;17.80;76.39;101907.21;107422;1253;109981;-64
2023/09/16 04:23:45;;;;;;;7.30;2.60;;;;;;;17.86;76.38;101913.50;107448;1254;107873;-65
2023/09/16 04:26:15;;;;;;;12.60;3.20;;;;;;;17.93;76.39;101911.33;107554;1253;96525;-64
2023/09/16 04:28:47;;;;;;;6.20;3.10;;;;;;;17.99;76.36;101912.14;107600;1254;96497;-64
2023/09/16 04:31:19;;;;;;;6.90;3.10;;;;;;;18.06;76.28;101918.23;107576;1254;110427;-64
2023/09/16 04:33:47;;;;;;;4.20;2.70;;;;;;;18.11;76.16;101920.14;107595;1254;109007;-63
2023/09/16 04:36:17;;;;;;;10.90;3.50;;;;;;;18.18;76.17;101921.48;107599;1254;106931;-63
2023/09/16 04:38:46;;;;;;;4.70;2.70;;;;;;;18.24;75.91;101923.42;107567;1254;96472;-65
2023/09/16 04:41:15;;;;;;;6.40;2.20;;;;;;;18.29;75.97;101925.80;107576;1254;96498;-64
2023/09/16 04:43:49;;;;;;;2.50;2.30;;;;;;;18.34;75.90;101930.17;107565;1256;112978;-64
2023/09/16 04:46:19;;;;;;;4.40;2.80;;;;;;;18.37;75.75;101933.70;107598;1254;109175;-64
2023/09/16 04:48:48;;;;;;;5.90;2.90;;;;;;;18.40;75.64;101936.81;107552;1253;107370;-64
2023/09/16 04:51:17;;;;;;;4.10;2.60;;;;;;;18.44;75.66;101937.70;107568;1254;96361;-64
2023/09/16 04:53:49;;;;;;;5.00;2.60;;;;;;;18.48;75.49;101941.61;107550;1254;96379;-64
2023/09/16 04:56:20;;;;;;;4.00;2.30;;;;;;;18.54;75.46;101941.98;107601;1253;109525;-64
2023/09/16 04:58:53;;;;;;;5.30;3.20;;;;;;;18.58;75.19;101943.39;107579;1253;109730;-65
2023/09/16 05:01:22;;;;;;;9.50;3.40;;;;;;;18.62;75.15;101946.38;107530;1254;106562;-65
2023/09/16 05:03:51;;;;;;;5.00;3.20;;;;;;;18.67;75.17;101952.77;107565;1253;96575;-65
2023/09/16 05:06:19;;;;;;;8.40;3.00;;;;;;;18.70;74.89;101951.42;107457;1253;96373;-64
2023/09/16 05:08:53;;;;;;;10.30;2.60;;;;;;;18.70;74.67;101948.87;107463;1254;110969;-65
2023/09/16 05:11:21;;;;;;;6.70;2.50;;;;;;;18.73;74.82;101956.34;107611;1253;108772;-65
2023/09/16 05:13:57;;;;;;;11.10;2.80;;;;;;;18.78;74.82;101951.65;107574;1254;107792;-65
2023/09/16 05:16:25;;;;;;;8.80;2.50;;;;;;;18.82;74.67;101951.90;107496;1256;97007;-65
2023/09/16 05:18:58;;;;;;;10.80;3.30;;;;;;;18.85;74.56;101954.69;107525;1254;96539;-65
2023/09/16 05:21:27;;;;;;;5.70;3.10;;;;;;;18.84;74.23;101953.58;107591;1253;110366;-64
2023/09/16 05:23:56;;;;;;;5.00;2.80;;;;;;;18.88;74.35;101955.67;107615;1253;109644;-64
2023/09/16 05:26:26;;;;;;;11.30;2.80;;;;;;;18.89;74.05;101957.05;107576;1253;108247;-63
2023/09/16 05:28:56;;;;;;;8.80;3.20;;;;;;;18.91;74.03;101954.58;107510;1254;96521;-65
2023/09/16 05:31:26;;;;;;;5.70;2.90;;;;;;;18.94;73.74;101957.48;107582;1253;97022;-64
2023/09/16 05:33:55;;;;;;;5.30;3.10;;;;;;;18.97;73.88;101961.11;107542;1254;109341;-64
2023/09/16 05:36:24;;;;;;;4.30;3.10;;;;;;;19.00;73.87;101961.30;107561;1254;109385;-64
2023/09/16 05:38:52;;;;;;;5.10;3.20;;;;;;;18.93;73.43;101957.52;107517;1253;107594;-64
2023/09/16 05:41:20;;;;;;;7.00;3.60;;;;;;;18.84;73.43;101954.02;107501;1254;97164;-63
2023/09/16 05:43:49;;;;;;;9.40;3.20;;;;;;;18.86;73.68;101958.20;107585;1254;96562;-64
2023/09/16 05:46:18;;;;;;;10.00;3.90;;;;;;;18.87;73.54;101958.71;107498;1253;110307;-65
2023/09/16 05:48:49;;;;;;;8.40;3.50;;;;;;;18.88;73.58;101965.09;107551;1253;108235;-65
2023/09/16 05:51:19;;;;;;;7.40;3.50;;;;;;;18.90;73.67;101969.23;107395;1253;107154;-63
2023/09/16 05:53:48;;;;;;;8.20;4.00;;;;;;;18.90;73.54;101970.35;107430;1253;96611;-65
2023/09/16 05:56:16;;;;;;;5.00;3.20;;;;;;;18.92;73.57;101967.45;107549;1253;96504;-65
2023/09/16 05:58:50;;;;;;;;;;;;;;;18.96;73.67;101969.41;107599;1254;110310;-65
2023/09/16 06:01:20;;;;;;;8.80;4.10;;;;;;;19.02;73.72;101971.19;107579;1254;109338;-63
2023/09/16 06:03:51;;;;;;;13.70;5.10;;;;;;;19.07;73.61;101970.43;107556;1253;107545;-67
2023/09/16 06:06:20;;;;;;;11.60;4.30;;;;;;;19.14;73.44;101967.12;107406;1253;96486;-64
2023/09/16 06:08:48;;;;;;;8.30;4.30;;;;;;;19.23;73.33;101967.05;107454;1254;96667;-64
2023/09/16 06:11:16;;;;;;;16.70;4.40;;;;;;;19.32;72.89;101970.73;107457;1253;109503;-64
2023/09/16 06:13:45;;;;;;;10.60;3.80;;;;;;;19.39;72.70;101974.83;107399;1256;110047;-64
2023/09/16 06:16:14;;;;;;;6.00;4.20;;;;;;;19.48;72.48;101976.21;107521;1253;107812;-63
2023/09/16 06:18:44;;;;;;;9.60;3.80;;;;;;;19.59;72.37;101981.12;107376;1253;96562;-65
2023/09/16 06:21:15;;;;;;;9.90;4.00;;;;;;;19.75;72.38;101981.77;107561;1254;96402;-62
2023/09/16 06:23:45;;;;;;;9.10;5.00;;;;;;;19.91;72.05;101984.18;107620;1254;109797;-64
2023/09/16 06:26:13;;;;;;;8.20;4.50;;;;;;;20.10;71.52;101988.51;107601;1254;108496;-62
2023/09/16 06:28:43;;;;;;;8.00;5.30;;;;;;;20.23;71.10;101991.63;107572;1256;107895;-64
2023/09/16 06:31:11;;;;;;;12.70;5.80;;;;;;;20.30;70.35;101988.69;107600;1256;96482;-64
2023/09/16 06:33:42;;;;;;;13.20;5.20;;;;;;;20.35;70.20;101993.20;107608;1254;96443;-65
2023/09/16 06:36:10;;;;;;;10.80;5.30;;;;;;;20.42;70.15;101991.17;107528;1254;111266;-64
2023/09/16 06:38:38;;;;;;;16.20;5.50;;;;;;;20.49;70.18;101987.61;107590;1253;109154;-64
2023/09/16 06:41:06;;;;;;;11.70;5.50;;;;;;;20.54;69.93;101990.16;107523;1253;107666;-63
2023/09/16 06:43:35;;;;;;;11.90;5.10;;;;;;;20.57;69.84;101991.00;107552;1254;96616;-64
2023/09/16 06:46:05;;;;;;;8.20;5.20;;;;;;;20.59;69.78;101995.25;107583;1253;96461;-64
2023/09/16 06:48:34;;;;;;;10.10;5.30;;;;;;;20.58;69.46;101994.80;107520;1254;108719;-64
2023/09/16 06:51:03;;;;;;;13.50;11.60;;;;;;;20.57;69.15;102000.96;107544;1254;109706;-64
2023/09/16 06:53:33;;;;;;;9.40;5.70;;;;;;;20.55;69.17;101997.77;107545;1256;107591;-64
2023/09/16 06:56:01;;;;;;;13.60;5.70;;;;;;;20.56;69.22;102001.23;107595;1254;96498;-65
2023/09/16 06:58:30;;;;;;;13.10;5.80;;;;;;;20.58;69.21;101998.27;107587;1254;96519;-63
2023/09/16 07:00:58;;;;;;;13.00;5.90;;;;;;;20.60;68.93;102001.23;107614;1252;110610;-65
2023/09/16 07:03:26;;;;;;;7.00;5.60;;;;;;;20.59;68.50;102001.45;107623;1254;109729;-64
2023/09/16 07:05:55;;;;;;;12.20;5.30;;;;;;;20.59;67.83;102007.31;107589;1256;108149;-66
2023/09/16 07:08:24;;;;;;;8.20;5.90;;;;;;;20.62;68.11;102008.27;107429;1253;96611;-65
2023/09/16 07:10:52;;;;;;;9.40;5.50;;;;;;;20.67;67.53;102009.35;107601;1253;96360;-64
2023/09/16 07:13:21;;;;;;;15.60;5.80;;;;;;;20.72;67.59;102004.28;107628;1254;110562;-64
2023/09/16 07:15:53;;;;;;;20.70;6.60;;;;;;;20.82;67.39;102005.51;107573;1253;109730;-65
2023/09/16 07:18:22;;;;;;;8.50;5.60;;;;;;;20.88;67.35;101999.40;107529;1254;108639;-64
2023/09/16 07:20:50;;;;;;;16.00;5.50;;;;;;;20.99;67.11;102000.55;107529;1254;96519;-65
2023/09/16 07:23:19;;;;;;;11.70;6.20;;;;;;;21.12;66.97;102000.98;107576;1254;97086;-65
2023/09/16 07:25:58;;;;;;;8.60;6.50;;;;;;;21.24;66.61;101999.25;107594;1256;110394;-65
2023/09/16 07:28:27;;;;;;;12.50;6.10;;;;;;;21.39;65.43;102001.20;107579;1256;110058;-65
2023/09/16 07:30:56;;;;;;;12.90;6.50;;;;;;;21.51;65.56;102003.45;107564;1253;108666;-65
2023/09/16 07:33:25;;;;;;;7.90;6.00;;;;;;;21.73;65.43;102007.61;107533;1254;96489;-65
2023/09/16 07:35:53;;;;;;;8.00;5.90;;;;;;;21.94;64.49;102004.65;107595;1253;96498;-64
2023/09/16 07:38:21;;;;;;;11.60;6.50;;;;;;;22.07;64.24;102007.71;107585;1253;110459;-64
2023/09/16 07:40:53;;;;;;;18.80;6.50;;;;;;;22.13;63.67;102007.43;107594;1253;108673;-64
2023/09/16 07:43:21;;;;;;;12.10;6.80;;;;;;;22.13;63.35;102010.85;107591;1253;108304;-64
2023/09/16 07:45:49;;;;;;;10.80;6.60;;;;;;;22.10;62.24;102010.19;107587;1252;96488;-66
2023/09/16 07:48:18;;;;;;;12.00;6.30;;;;;;;21.96;62.20;102010.36;107579;1252;96380;-64
2023/09/16 07:50:47;;;;;;;13.00;6.70;;;;;;;21.88;62.69;102012.20;107604;1253;111153;-64
2023/09/16 07:53:16;;;;;;;12.60;7.30;;;;;;;21.85;62.93;102011.09;107569;1254;109569;-65
2023/09/16 07:55:44;;;;;;;14.20;7.20;;;;;;;21.80;62.75;102011.33;107603;1253;107293;-65
2023/09/16 07:58:12;;;;;;;17.00;7.50;;;;;;;21.74;63.10;102013.40;107581;1254;96580;-64
2023/09/16 08:00:40;;;;;;;11.20;6.70;;;;;;;21.72;63.06;102014.92;107637;1254;96571;-65
2023/09/16 08:03:09;;;;;;;13.30;7.00;;;;;;;21.69;63.03;102013.44;107583;1254;109414;-63
2023/09/16 08:05:37;;;;;;;9.40;6.10;;;;;;;21.67;62.79;102014.06;107597;1254;110161;-65
2023/09/16 08:08:06;;;;;;;18.60;8.00;;;;;;;21.66;62.91;102010.71;107600;1252;108281;-64
2023/09/16 08:10:34;;;;;;;10.00;6.40;;;;;;;21.67;62.96;102017.21;107549;1253;96482;-65
2023/09/16 08:13:03;;;;;;;11.30;7.50;;;;;;;21.65;62.91;102016.27;107625;1252;97122;-64
2023/09/16 08:15:32;;;;;;;13.60;7.50;;;;;;;21.63;62.64;102016.38;107589;1254;109881;-64
2023/09/16 08:18:00;;;;;;;12.40;7.20;;;;;;;21.58;62.83;102020.70;107598;1253;110079;-64
2023/09/16 08:20:29;;;;;;;13.10;7.60;;;;;;;21.53;62.75;102021.64;107548;1256;107570;-65
2023/09/16 08:22:58;;;;;;;9.70;6.70;;;;;;;21.49;62.76;102021.45;107563;1253;96475;-64
2023/09/16 08:25:26;;;;;;;11.20;6.60;;;;;;;21.42;62.68;102019.64;107618;1254;97019;-64
2023/09/16 08:27:54;;;;;;;14.80;7.10;;;;;;;21.37;62.66;102022.85;107588;1254;111054;-64
2023/09/16 08:30:23;;;;;;;10.40;7.30;;;;;;;21.30;62.93;102023.29;107630;1252;109398;-64
2023/09/16 08:32:51;;;;;;;15.30;8.10;;;;;;;21.25;63.15;102025.08;107401;1254;108379;-65
2023/09/16 08:35:22;;;;;;;24.10;8.30;;;;;;;21.22;63.13;102028.50;107441;1256;96563;-64
2023/09/16 08:37:51;;;;;;;19.10;8.30;;;;;;;21.19;63.43;102024.48;107593;1253;96707;-67
2023/09/16 08:40:19;;;;;;;11.20;7.10;;;;;;;21.16;63.11;102028.08;107587;1252;110502;-64
2023/09/16 08:43:13;;;;;;;10.20;7.60;;;;;;;21.13;63.31;102021.70;107572;1253;109740;-64
2023/09/16 08:45:49;;;;;;;13.40;8.10;;;;;;;21.11;63.28;102023.02;107603;1253;107697;-65
2023/09/16 08:48:25;;;;;;;12.40;7.30;;;;;;;21.13;63.45;102020.46;107558;1253;96524;-65
2023/09/16 08:50:56;;;;;;;14.90;7.70;;;;;;;21.15;63.37;102019.44;107518;1256;97888;-65
2023/09/16 08:53:29;;;;;;;9.80;7.50;;;;;;;21.19;63.47;102021.36;107522;1254;109933;-64
2023/09/16 08:55:59;;;;;;;14.10;7.40;;;;;;;21.24;63.38;102017.39;107592;1254;108908;-65
2023/09/16 08:58:27;;;;;;;11.20;7.80;;;;;;;21.29;63.37;102019.55;107578;1252;108306;-65
2023/09/16 09:00:55;;;;;;;12.30;8.10;;;;;;;21.35;63.39;102019.73;107522;1253;96491;-64
2023/09/16 09:03:24;;;;;;;16.50;8.70;;;;;;;21.44;63.43;102019.59;107577;1254;97041;-64
2023/09/16 09:05:53;;;;;;;13.80;8.10;;;;;;;21.55;63.09;102022.21;107593;1253;110699;-65
2023/09/16 09:08:22;;;;;;;17.50;8.20;;;;;;;21.65;63.30;102020.94;107491;1254;108636;-64
2023/09/16 09:10:50;;;;;;;19.70;8.60;;;;;;;21.76;62.71;102026.58;107531;1254;107704;-65
2023/09/16 09:13:19;;;;;;;13.20;7.60;;;;;;;21.84;62.48;102030.54;107509;1256;96696;-66
2023/09/16 09:15:49;;;;;;;9.70;7.00;;;;;;;21.93;62.07;102030.17;107466;1253;96401;-65
2023/09/16 09:18:18;;;;;;;11.30;8.00;;;;;;;22.04;61.71;102028.80;107564;1252;109458;-64
2023/09/16 09:20:46;;;;;;;14.30;7.80;;;;;;;22.12;61.33;102024.13;107561;1254;108346;-65
2023/09/16 09:23:15;;;;;;;11.70;7.70;;;;;;;22.22;61.14;102027.51;107525;1254;107183;-65
2023/09/16 09:25:43;;;;;;;21.70;8.40;;;;;;;22.34;60.98;102025.00;107506;1253;96642;-65
2023/09/16 09:28:13;;;;;;;11.70;9.10;;;;;;;22.46;60.53;102026.77;107520;1253;96479;-65
2023/09/16 09:30:41;;;;;;;14.50;8.10;;;;;;;22.58;60.59;102023.89;107433;1253;109523;-63
2023/09/16 09:33:14;;;;;;;10.30;8.70;;;;;;;22.72;60.46;102024.32;107551;1253;109115;-65
2023/09/16 09:35:42;;;;;;;20.70;8.20;;;;;;;22.86;59.93;102020.27;107595;1254;106755;-64
2023/09/16 09:38:11;;;;;;;11.70;8.20;;;;;;;23.01;59.59;102024.26;107527;1254;96498;-64
2023/09/16 09:40:40;;;;;;;17.10;8.50;;;;;;;23.14;58.81;102025.08;107594;1256;96591;-67
2023/09/16 09:43:08;;;;;;;17.50;9.10;;;;;;;23.27;58.11;102019.48;107631;1253;109393;-65
2023/09/16 09:45:37;;;;;;;11.20;8.10;;;;;;;23.36;57.36;102026.11;107580;1252;108558;-65
2023/09/16 09:48:06;;;;;;;13.70;8.00;;;;;;;23.44;57.48;102024.91;107557;1254;108318;-63
2023/09/16 09:50:36;;;;;;;12.80;9.00;;;;;;;23.53;56.07;102023.08;107579;1254;96500;-65
2023/09/16 09:53:04;;;;;;;11.70;8.10;;;;;;;23.52;55.89;102022.89;107614;1253;97009;-64
2023/09/16 09:55:33;;;;;;;20.20;8.80;;;;;;;23.58;56.28;102020.64;107583;1254;109439;-65
2023/09/16 09:58:02;;;;;;;16.10;9.00;;;;;;;23.68;56.23;102019.45;107607;1254;109716;-63
2023/09/16 10:00:30;;;;;;;15.50;8.20;;;;;;;23.77;56.01;102018.65;107540;1256;108451;-66
2023/09/16 10:03:00;;;;;;;16.30;10.00;;;;;;;23.84;55.35;102018.66;107556;1253;96501;-66
2023/09/16 10:05:35;;;;;;;14.30;9.80;;;;;;;23.92;55.26;102018.54;107628;1252;96520;-65
2023/09/16 10:08:04;;;;;;;17.70;9.70;;;;;;;24.04;55.48;102017.77;107268;1252;436179;-64
2023/09/16 10:10:35;;;;;;;14.90;9.20;;;;;;;24.20;55.23;102011.70;107588;1254;108585;-64
2023/09/16 10:13:04;;;;;;;14.40;9.30;;;;;;;24.37;54.72;102013.28;107580;1253;107109;-63
2023/09/16 10:15:35;;;;;;;14.20;8.40;;;;;;;24.54;54.69;102015.17;107597;1254;96505;-64
2023/09/16 10:18:04;;;;;;;12.40;8.40;;;;;;;24.71;54.31;102016.29;107602;1252;96549;-65
2023/09/16 10:20:36;;;;;;;16.60;8.20;;;;;;;24.88;54.02;102013.62;107629;1254;109176;-64
2023/09/16 10:23:05;;;;;;;13.40;8.60;;;;;;;25.06;52.90;102015.80;107583;1254;109677;-64
2023/09/16 10:25:35;;;;;;;10.60;7.30;;;;;;;25.19;52.80;102015.45;107643;1254;107611;-64
2023/09/16 10:28:12;;;;;;;10.90;7.00;;;;;;;25.39;52.62;102015.86;107602;1252;96465;-65
2023/09/16 10:30:41;;;;;;;19.60;8.20;;;;;;;25.54;52.53;102015.92;107587;1254;97076;-65
2023/09/16 10:33:11;;;;;;;9.90;6.70;;;;;;;25.66;51.57;102016.27;107605;1254;110896;-65
2023/09/16 10:35:41;;;;;;;14.00;8.00;;;;;;;25.70;50.01;102015.26;107564;1254;109097;-66
2023/09/16 10:38:12;;;;;;;17.60;8.20;;;;;;;25.57;48.37;102008.66;107561;1254;108314;-66
2023/09/16 10:40:42;;;;;;;17.20;11.70;;;;;;;25.36;48.61;102010.54;107488;1253;96491;-66
2023/09/16 10:43:12;;;;;;;18.60;8.40;;;;;;;25.23;49.56;102011.19;107552;1254;96555;-65
2023/09/16 10:45:41;;;;;;;11.60;7.70;;;;;;;25.18;49.80;102010.70;107550;1253;109739;-65
2023/09/16 10:48:10;;;;;;;14.00;9.30;;;;;;;25.13;49.36;102008.90;107557;1254;109025;-66
2023/09/16 10:50:39;;;;;;;13.90;9.20;;;;;;;25.04;49.73;102004.69;107581;1254;108208;-65
2023/09/16 10:53:26;;;;;;;13.40;7.10;;;;;;;25.03;50.10;102003.13;107533;1252;96488;-65
2023/09/16 10:56:09;;;;;;;10.10;7.50;;;;;;;25.07;50.05;101999.15;107510;1253;96353;-65
2023/09/16 10:58:48;;;;;;;;;;;;;;;25.09;49.80;101996.50;107587;1253;109991;-65
2023/09/16 11:01:39;;;;;;;10.60;7.50;;;;;;;25.10;49.52;101995.83;107539;1253;109136;-66
2023/09/16 11:04:17;;;;;;;13.70;8.50;;;;;;;25.12;49.66;101990.59;107624;1254;108034;-65
2023/09/16 11:06:50;;;;;;;14.10;8.50;;;;;;;25.15;48.85;101988.29;107468;1253;96699;-66
2023/09/16 11:09:24;;;;;;;11.90;7.90;;;;;;;25.21;49.59;101984.20;107476;1253;97128;-65
2023/09/16 11:11:52;;;;;;;;;;;;;;;25.38;49.37;101980.80;107610;1254;109434;-65
2023/09/16 11:14:22;;;;;;;9.30;7.10;;;;;;;25.51;48.80;101979.02;107609;1256;110156;-65
2023/09/16 11:16:52;;;;;;;11.20;7.80;;;;;;;25.59;48.54;101980.86;107563;1253;108282;-66
2023/09/16 11:19:24;;;;;;;11.10;7.70;;;;;;;25.69;48.37;101982.65;107531;1254;96399;-65
2023/09/16 11:21:53;;;;;;;13.60;8.10;;;;;;;25.80;48.48;101982.48;107619;1253;96485;-65